createdAt,value
2018-09-04T00:00:48.986Z,58.23
2018-09-04T00:01:53.525Z,53.30
2018-09-04T00:02:58.203Z,53.98
2018-09-04T00:04:02.918Z,53.08
2018-09-04T00:05:07.407Z,58.48
2018-09-04T00:06:12.120Z,59.13
2018-09-04T00:07:20.014Z,57.78
2018-09-04T00:08:24.466Z,58.40
2018-09-04T00:09:29.401Z,57.00
2018-09-04T00:10:33.974Z,57.75
2018-09-04T00:11:38.909Z,56.10
2018-09-04T00:12:43.614Z,57.88
2018-09-04T00:13:48.314Z,58.40
2018-09-04T00:14:52.551Z,54.13
2018-09-04T00:15:57.502Z,53.83
2018-09-04T00:17:02.632Z,55.00
2018-09-04T00:18:07.122Z,54.75
2018-09-04T00:19:12.142Z,54.63
2018-09-04T00:20:17.187Z,57.03
2018-09-04T00:21:21.751Z,56.83
2018-09-04T00:22:26.382Z,47.38
2018-09-04T00:23:31.496Z,52.88
2018-09-04T00:24:36.354Z,61.45
2018-09-04T00:25:40.745Z,57.20
2018-09-04T00:26:45.521Z,50.88
2018-09-04T00:27:50.011Z,58.55
2018-09-04T00:28:54.576Z,61.83
2018-09-04T00:29:59.088Z,57.65
2018-09-04T00:31:03.600Z,54.08
2018-09-04T00:32:08.681Z,53.92
2018-09-04T00:33:13.239Z,54.38
2018-09-04T00:34:17.915Z,55.80
2018-09-04T00:35:23.127Z,57.10
2018-09-04T00:36:28.162Z,54.67
2018-09-04T00:37:33.006Z,56.75
2018-09-04T00:38:38.331Z,58.20
2018-09-04T00:39:43.668Z,56.02
2018-09-04T00:40:48.234Z,60.78
2018-09-04T00:41:52.938Z,54.60
2018-09-04T00:42:58.235Z,57.00
2018-09-04T00:44:03.060Z,51.15
2018-09-04T00:45:07.811Z,52.67
2018-09-04T00:46:12.576Z,49.77
2018-09-04T00:47:17.446Z,54.27
2018-09-04T00:48:21.884Z,62.03
2018-09-04T00:49:26.047Z,59.33
2018-09-04T00:50:31.188Z,51.73
2018-09-04T00:51:36.230Z,55.90
2018-09-04T00:52:41.220Z,50.90
2018-09-04T00:53:45.716Z,52.88
2018-09-04T00:54:50.486Z,58.02
2018-09-04T00:55:55.321Z,61.00
2018-09-04T00:57:00.279Z,53.48
2018-09-04T00:58:05.804Z,57.60
2018-09-04T00:59:10.673Z,55.75
2018-09-04T01:00:14.872Z,55.10
2018-09-04T01:01:20.300Z,52.38
2018-09-04T01:02:25.554Z,56.20
2018-09-04T01:03:30.439Z,56.92
2018-09-04T01:04:35.511Z,58.80
2018-09-04T01:05:40.006Z,58.98
2018-09-04T01:06:44.681Z,59.73
2018-09-04T01:07:49.309Z,53.95
2018-09-04T01:08:53.821Z,56.55
2018-09-04T01:09:58.946Z,60.03
2018-09-04T01:11:03.606Z,61.23
2018-09-04T01:12:08.252Z,64.42
2018-09-04T01:13:13.045Z,59.20
2018-09-04T01:14:17.854Z,55.30
2018-09-04T01:15:22.230Z,49.65
2018-09-04T01:16:27.233Z,58.98
2018-09-04T01:17:31.779Z,64.40
2018-09-04T01:18:36.158Z,61.18
2018-09-04T01:19:40.787Z,53.73
2018-09-04T01:20:45.902Z,53.48
2018-09-04T01:21:50.432Z,54.90
2018-09-04T01:22:55.303Z,55.58
2018-09-04T01:23:59.960Z,56.58
2018-09-04T01:25:04.246Z,56.37
2018-09-04T01:26:08.821Z,64.58
2018-09-04T01:27:13.623Z,63.23
2018-09-04T01:28:18.759Z,52.95
2018-09-04T01:29:23.419Z,52.95
2018-09-04T01:30:27.958Z,51.53
2018-09-04T01:31:32.824Z,59.20
2018-09-04T01:32:37.517Z,56.18
2018-09-04T01:33:42.072Z,63.90
2018-09-04T01:34:47.010Z,57.38
2018-09-04T01:35:51.440Z,57.10
2018-09-04T01:36:56.245Z,61.08
2018-09-04T01:38:01.134Z,62.35
2018-09-04T01:39:07.256Z,57.15
2018-09-04T01:40:11.641Z,55.92
2018-09-04T01:41:16.074Z,56.83
2018-09-04T01:42:21.097Z,57.65
2018-09-04T01:43:25.822Z,57.98
2018-09-04T01:44:30.276Z,59.80
2018-09-04T01:45:34.918Z,57.90
2018-09-04T01:46:39.652Z,61.35
2018-09-04T01:47:44.446Z,55.08
2018-09-04T01:48:49.976Z,63.78
2018-09-04T01:49:55.172Z,58.75
2018-09-04T01:51:00.257Z,58.50
2018-09-04T01:52:04.946Z,56.58
2018-09-04T01:53:09.589Z,53.80
2018-09-04T01:54:14.447Z,56.83
2018-09-04T01:55:19.319Z,61.65
2018-09-04T01:56:24.316Z,56.58
2018-09-04T01:57:29.264Z,55.00
2018-09-04T01:58:34.290Z,54.93
2018-09-04T01:59:39.034Z,57.98
2018-09-04T02:00:44.134Z,58.50
2018-09-04T02:01:48.583Z,50.92
2018-09-04T02:02:53.395Z,56.08
2018-09-04T02:03:58.139Z,58.48
2018-09-04T02:05:02.634Z,56.45
2018-09-04T02:06:06.991Z,56.02
2018-09-04T02:07:11.401Z,55.83
2018-09-04T02:08:15.924Z,52.20
2018-09-04T02:09:21.318Z,64.27
2018-09-04T02:10:25.977Z,60.45
2018-09-04T02:11:30.878Z,55.63
2018-09-04T02:12:35.495Z,52.58
2018-09-04T02:13:40.343Z,58.78
2018-09-04T02:14:45.034Z,60.67
2018-09-04T02:15:50.101Z,63.25
2018-09-04T02:16:54.703Z,64.05
2018-09-04T02:17:59.453Z,56.13
2018-09-04T02:19:04.307Z,62.60
2018-09-04T02:20:09.081Z,55.73
2018-09-04T02:21:13.771Z,56.50
2018-09-04T02:22:18.730Z,52.78
2018-09-04T02:23:23.717Z,57.90
2018-09-04T02:24:28.758Z,60.92
2018-09-04T02:25:33.431Z,60.40
2018-09-04T02:26:38.314Z,63.02
2018-09-04T02:27:43.397Z,55.35
2018-09-04T02:28:48.220Z,59.03
2018-09-04T02:29:52.932Z,49.00
2018-09-04T02:30:57.693Z,56.75
2018-09-04T02:32:02.531Z,53.50
2018-09-04T02:33:07.471Z,56.05
2018-09-04T02:34:12.090Z,59.13
2018-09-04T02:35:16.933Z,54.55
2018-09-04T02:36:21.400Z,57.25
2018-09-04T02:37:26.242Z,56.20
2018-09-04T02:38:31.084Z,53.42
2018-09-04T02:39:36.614Z,55.23
2018-09-04T02:40:41.340Z,55.35
2018-09-04T02:41:46.423Z,52.35
2018-09-04T02:42:51.585Z,56.25
2018-09-04T02:43:56.232Z,60.00
2018-09-04T02:45:01.257Z,62.58
2018-09-04T02:46:08.196Z,60.40
2018-09-04T02:47:13.319Z,52.15
2018-09-04T02:48:18.146Z,49.53
2018-09-04T02:49:23.089Z,53.75
2018-09-04T02:50:27.983Z,55.92
2018-09-04T02:51:32.912Z,58.08
2018-09-04T02:52:37.819Z,56.60
2018-09-04T02:53:42.840Z,56.15
2018-09-04T02:54:48.428Z,51.20
2018-09-04T02:55:52.957Z,59.67
2018-09-04T02:56:58.033Z,61.10
2018-09-04T02:58:03.179Z,57.33
2018-09-04T02:59:07.988Z,57.65
2018-09-04T03:00:13.024Z,60.65
2018-09-04T03:01:18.233Z,52.27
2018-09-04T03:02:23.045Z,50.25
2018-09-04T03:03:30.673Z,57.23
2018-09-04T03:04:35.543Z,60.33
2018-09-04T03:05:40.451Z,52.20
2018-09-04T03:06:45.333Z,52.53
2018-09-04T03:07:50.193Z,56.75
2018-09-04T03:08:55.654Z,61.08
2018-09-04T03:10:00.454Z,61.85
2018-09-04T03:11:05.496Z,60.83
2018-09-04T03:12:10.699Z,55.12
2018-09-04T03:13:15.518Z,54.60
2018-09-04T03:14:20.054Z,57.17
2018-09-04T03:15:24.956Z,57.30
2018-09-04T03:16:29.991Z,59.33
2018-09-04T03:17:35.302Z,64.25
2018-09-04T03:18:40.201Z,63.52
2018-09-04T03:19:44.909Z,63.28
2018-09-04T03:20:49.730Z,67.62
2018-09-04T03:21:55.136Z,62.67
2018-09-04T03:23:00.600Z,68.70
2018-09-04T03:24:04.848Z,66.40
2018-09-04T03:25:09.273Z,57.38
2018-09-04T03:26:14.605Z,60.48
2018-09-04T03:27:19.859Z,58.13
2018-09-04T03:28:24.960Z,57.40
2018-09-04T03:29:30.096Z,54.42
2018-09-04T03:30:35.557Z,62.40
2018-09-04T03:31:40.241Z,55.38
2018-09-04T03:32:45.160Z,56.58
2018-09-04T03:33:50.315Z,63.60
2018-09-04T03:34:54.926Z,74.87
2018-09-04T03:35:59.461Z,63.15
2018-09-04T03:37:04.480Z,60.30
2018-09-04T03:38:09.251Z,64.60
2018-09-04T03:39:14.274Z,63.08
2018-09-04T03:40:19.203Z,65.52
2018-09-04T03:41:24.013Z,59.93
2018-09-04T03:42:28.355Z,57.60
2018-09-04T03:43:32.889Z,60.80
2018-09-04T03:44:37.073Z,62.05
2018-09-04T03:45:41.691Z,55.67
2018-09-04T03:46:45.888Z,63.58
2018-09-04T03:47:50.508Z,62.78
2018-09-04T03:48:55.126Z,59.98
2018-09-04T03:49:59.883Z,62.78
2018-09-04T03:51:05.362Z,63.65
2018-09-04T03:52:10.327Z,51.73
2018-09-04T03:53:15.193Z,67.58
2018-09-04T03:54:19.546Z,58.52
2018-09-04T03:55:23.951Z,64.65
2018-09-04T03:56:28.197Z,59.73
2018-09-04T03:57:32.813Z,61.48
2018-09-04T03:58:37.467Z,59.42
2018-09-04T03:59:42.064Z,56.70
2018-09-04T04:00:46.532Z,57.40
2018-09-04T04:01:51.290Z,60.48
2018-09-04T04:02:55.959Z,55.10
2018-09-04T04:04:00.550Z,58.58
2018-09-04T04:05:05.202Z,67.15
2018-09-04T04:06:09.777Z,62.58
2018-09-04T04:07:14.208Z,56.05
2018-09-04T04:08:18.674Z,60.05
2018-09-04T04:09:23.029Z,56.15
2018-09-04T04:10:27.392Z,60.12
2018-09-04T04:11:32.314Z,62.58
2018-09-04T04:12:37.660Z,62.70
2018-09-04T04:13:42.644Z,62.50
2018-09-04T04:14:47.720Z,59.70
2018-09-04T04:15:52.892Z,61.40
2018-09-04T04:16:57.814Z,61.10
2018-09-04T04:18:02.707Z,57.93
2018-09-04T04:19:07.399Z,61.13
2018-09-04T04:20:12.472Z,61.30
2018-09-04T04:21:17.032Z,61.10
2018-09-04T04:22:21.956Z,61.25
2018-09-04T04:23:27.469Z,65.52
2018-09-04T04:24:32.197Z,61.90
2018-09-04T04:25:36.831Z,61.20
2018-09-04T04:26:41.712Z,57.30
2018-09-04T04:27:46.636Z,58.00
2018-09-04T04:28:51.071Z,65.52
2018-09-04T04:29:55.962Z,59.80
2018-09-04T04:31:00.179Z,65.40
2018-09-04T04:32:05.014Z,68.25
2018-09-04T04:33:09.972Z,68.28
2018-09-04T04:34:14.418Z,61.25
2018-09-04T04:35:19.151Z,58.02
2018-09-04T04:36:23.880Z,61.37
2018-09-04T04:37:28.802Z,63.23
2018-09-04T04:38:33.651Z,57.78
2018-09-04T04:39:38.187Z,63.52
2018-09-04T04:40:43.015Z,62.70
2018-09-04T04:41:47.567Z,69.37
2018-09-04T04:42:52.132Z,63.68
2018-09-04T04:43:57.047Z,62.60
2018-09-04T04:45:01.708Z,66.28
2018-09-04T04:46:06.431Z,66.40
2018-09-04T04:47:11.448Z,64.37
2018-09-04T04:48:15.735Z,66.97
2018-09-04T04:49:20.090Z,66.62
2018-09-04T04:50:24.573Z,75.20
2018-09-04T04:51:29.220Z,66.67
2018-09-04T04:52:33.816Z,77.22
2018-09-04T04:53:38.528Z,68.05
2018-09-04T04:54:43.008Z,82.60
2018-09-04T04:55:47.746Z,72.35
2018-09-04T04:56:52.430Z,76.53
2018-09-04T04:57:57.035Z,68.07
2018-09-04T04:59:01.651Z,72.17
2018-09-04T05:00:06.475Z,70.83
2018-09-04T05:01:11.106Z,73.47
2018-09-04T05:02:15.631Z,72.90
2018-09-04T05:03:19.805Z,81.95
2018-09-04T05:04:24.170Z,72.10
2018-09-04T05:05:28.928Z,73.80
2018-09-04T05:06:33.813Z,83.10
2018-09-04T05:07:38.674Z,69.85
2018-09-04T05:08:43.195Z,76.47
2018-09-04T05:09:47.774Z,81.22
2018-09-04T05:10:52.315Z,77.22
2018-09-04T05:11:56.708Z,71.42
2018-09-04T05:13:01.920Z,73.92
2018-09-04T05:14:06.811Z,81.35
2018-09-04T05:15:11.759Z,78.50
2018-09-04T05:16:16.570Z,83.15
2018-09-04T05:17:21.778Z,89.92
2018-09-04T05:18:26.635Z,80.45
2018-09-04T05:19:31.002Z,88.42
2018-09-04T05:20:36.189Z,85.30
2018-09-04T05:21:41.180Z,83.87
2018-09-04T05:22:45.975Z,89.67
2018-09-04T05:23:51.017Z,88.00
2018-09-04T05:24:55.626Z,85.40
2018-09-04T05:26:00.221Z,87.00
2018-09-04T05:27:05.395Z,79.85
2018-09-04T05:28:10.238Z,86.53
2018-09-04T05:29:14.756Z,86.90
2018-09-04T05:30:19.278Z,85.47
2018-09-04T05:31:24.127Z,87.50
2018-09-04T05:32:32.868Z,85.62
2018-09-04T05:33:41.816Z,95.50
2018-09-04T05:34:46.182Z,82.60
2018-09-04T05:35:53.562Z,93.85
2018-09-04T05:36:58.036Z,79.40
2018-09-04T05:38:02.624Z,76.20
2018-09-04T05:39:09.359Z,83.40
2018-09-04T05:40:14.490Z,76.30
2018-09-04T05:41:19.420Z,84.92
2018-09-04T05:42:33.281Z,80.85
2018-09-04T05:43:50.943Z,77.82
2018-09-04T05:44:55.777Z,72.22
2018-09-04T05:46:02.963Z,69.87
2018-09-04T05:47:07.758Z,76.45
2018-09-04T05:48:13.728Z,70.95
2018-09-04T05:49:20.847Z,77.20
2018-09-04T05:50:25.370Z,75.45
2018-09-04T05:51:29.990Z,74.77
2018-09-04T05:52:34.887Z,67.85
2018-09-04T05:53:39.863Z,70.92
2018-09-04T05:54:44.481Z,74.80
2018-09-04T05:55:49.552Z,65.72
2018-09-04T05:56:54.360Z,77.50
2018-09-04T05:57:59.299Z,76.02
2018-09-04T05:59:03.867Z,66.15
2018-09-04T06:00:11.917Z,65.70
2018-09-04T06:01:16.704Z,82.05
2018-09-04T06:02:21.722Z,70.42
2018-09-04T06:03:26.180Z,74.37
2018-09-04T06:04:30.484Z,65.57
2018-09-04T06:05:35.299Z,71.72
2018-09-04T06:06:39.486Z,70.32
2018-09-04T06:07:44.648Z,72.75
2018-09-04T06:08:50.309Z,76.70
2018-09-04T06:09:54.999Z,65.62
2018-09-04T06:10:59.502Z,65.17
2018-09-04T06:12:03.971Z,75.47
2018-09-04T06:13:08.808Z,79.65
2018-09-04T06:14:13.463Z,72.95
2018-09-04T06:15:18.364Z,75.05
2018-09-04T06:16:23.172Z,84.32
2018-09-04T06:17:28.062Z,80.50
2018-09-04T06:18:32.780Z,75.70
2018-09-04T06:19:37.882Z,81.12
2018-09-04T06:20:42.394Z,77.97
2018-09-04T06:21:46.550Z,79.97
2018-09-04T06:22:50.733Z,77.53
2018-09-04T06:23:55.816Z,85.20
2018-09-04T06:25:00.035Z,78.97
2018-09-04T06:26:04.379Z,76.53
2018-09-04T06:27:09.367Z,83.78
2018-09-04T06:28:13.571Z,82.42
2018-09-04T06:29:17.880Z,83.82
2018-09-04T06:30:22.068Z,81.45
2018-09-04T06:31:26.308Z,76.57
2018-09-04T06:32:30.496Z,76.10
2018-09-04T06:33:35.154Z,78.22
2018-09-04T06:34:40.445Z,92.67
2018-09-04T06:35:44.570Z,80.97
2018-09-04T06:36:49.017Z,79.87
2018-09-04T06:37:53.261Z,78.92
2018-09-04T06:38:57.739Z,77.92
2018-09-04T06:40:02.307Z,83.22
2018-09-04T06:41:07.044Z,72.17
2018-09-04T06:42:12.180Z,85.95
2018-09-04T06:43:16.745Z,85.67
2018-09-04T06:44:21.446Z,81.22
2018-09-04T06:45:26.084Z,75.80
2018-09-04T06:46:30.926Z,79.80
2018-09-04T06:47:35.415Z,79.20
2018-09-04T06:48:40.407Z,80.03
2018-09-04T06:49:44.716Z,80.47
2018-09-04T06:50:49.371Z,84.42
2018-09-04T06:51:53.584Z,89.03
2018-09-04T06:52:58.187Z,84.58
2018-09-04T06:54:02.487Z,96.25
2018-09-04T06:55:06.747Z,72.17
2018-09-04T06:56:11.098Z,79.40
2018-09-04T06:57:16.103Z,82.85
2018-09-04T06:58:20.620Z,82.60
2018-09-04T06:59:24.866Z,92.25
2018-09-04T07:00:29.050Z,79.27
2018-09-04T07:01:33.672Z,92.67
2018-09-04T07:02:37.903Z,81.28
2018-09-04T07:03:42.087Z,88.45
2018-09-04T07:04:46.253Z,88.30
2018-09-04T07:05:50.630Z,84.75
2018-09-04T07:06:54.811Z,89.45
2018-09-04T07:07:58.982Z,85.70
2018-09-04T07:09:03.728Z,82.88
2018-09-04T07:10:08.226Z,97.78
2018-09-04T07:11:12.476Z,84.85
2018-09-04T07:12:16.837Z,90.10
2018-09-04T07:13:21.130Z,83.22
2018-09-04T07:14:25.376Z,89.42
2018-09-04T07:15:29.582Z,85.45
2018-09-04T07:16:33.866Z,88.72
2018-09-04T07:17:38.276Z,89.15
2018-09-04T07:18:42.507Z,84.77
2018-09-04T07:19:46.702Z,90.20
2018-09-04T07:20:51.430Z,80.25
2018-09-04T07:21:56.261Z,84.97
2018-09-04T07:23:01.059Z,80.92
2018-09-04T07:24:05.351Z,86.78
2018-09-04T07:25:10.086Z,77.37
2018-09-04T07:26:14.427Z,83.85
2018-09-04T07:27:19.075Z,88.50
2018-09-04T07:28:23.349Z,89.65
2018-09-04T07:29:28.102Z,99.67
2018-09-04T07:30:32.967Z,86.15
2018-09-04T07:31:37.208Z,91.85
2018-09-04T07:32:41.463Z,80.65
2018-09-04T07:33:45.960Z,88.97
2018-09-04T07:34:50.370Z,90.45
2018-09-04T07:35:55.124Z,81.72
2018-09-04T07:36:59.392Z,89.80
2018-09-04T07:38:04.006Z,85.53
2018-09-04T07:39:10.213Z,83.12
2018-09-04T07:40:14.513Z,89.22
2018-09-04T07:41:18.856Z,86.00
2018-09-04T07:42:23.383Z,87.08
2018-09-04T07:43:27.669Z,89.00
2018-09-04T07:44:31.886Z,84.25
2018-09-04T07:45:36.259Z,81.05
2018-09-04T07:46:40.534Z,97.80
2018-09-04T07:47:44.926Z,87.22
2018-09-04T07:48:49.109Z,89.37
2018-09-04T07:49:53.539Z,85.47
2018-09-04T07:50:57.795Z,81.70
2018-09-04T07:52:02.078Z,87.62
2018-09-04T07:53:07.180Z,88.55
2018-09-04T07:54:11.452Z,82.47
2018-09-04T07:55:16.176Z,86.37
2018-09-04T07:56:20.859Z,87.57
2018-09-04T07:57:25.080Z,86.55
2018-09-04T07:58:29.395Z,86.65
2018-09-04T07:59:34.111Z,90.22
2018-09-04T08:00:38.408Z,76.35
2018-09-04T08:01:42.574Z,80.03
2018-09-04T08:02:46.846Z,90.10
2018-09-04T08:03:51.471Z,99.97
2018-09-04T08:04:56.179Z,82.92
2018-09-04T08:06:00.481Z,88.72
2018-09-04T08:07:04.919Z,86.63
2018-09-04T08:08:09.228Z,85.53
2018-09-04T08:09:13.387Z,86.28
2018-09-04T08:10:17.691Z,82.88
2018-09-04T08:11:21.931Z,82.05
2018-09-04T08:12:26.149Z,75.90
2018-09-04T08:13:30.868Z,77.62
2018-09-04T08:14:35.477Z,80.12
2018-09-04T08:15:39.712Z,81.63
2018-09-04T08:16:44.123Z,76.35
2018-09-04T08:17:48.453Z,78.95
2018-09-04T08:18:52.736Z,77.50
2018-09-04T08:19:57.736Z,76.90
2018-09-04T08:21:02.004Z,89.87
2018-09-04T08:22:06.193Z,79.12
2018-09-04T08:23:10.382Z,74.60
2018-09-04T08:24:14.579Z,78.95
2018-09-04T08:25:19.040Z,82.90
2018-09-04T08:26:23.247Z,80.12
2018-09-04T08:27:27.442Z,75.50
2018-09-04T08:28:31.650Z,84.83
2018-09-04T08:29:35.889Z,74.53
2018-09-04T08:30:40.043Z,67.97
2018-09-04T08:31:44.300Z,75.47
2018-09-04T08:32:48.560Z,75.52
2018-09-04T08:33:52.914Z,72.95
2018-09-04T08:34:57.102Z,77.10
2018-09-04T08:36:01.326Z,84.83
2018-09-04T08:37:05.785Z,75.35
2018-09-04T08:38:10.025Z,81.10
2018-09-04T08:39:14.206Z,93.37
2018-09-04T08:40:18.452Z,80.83
2018-09-04T08:41:22.639Z,81.93
2018-09-04T08:42:27.078Z,76.62
2018-09-04T08:43:31.311Z,85.27
2018-09-04T08:44:35.543Z,88.80
2018-09-04T08:45:39.717Z,81.30
2018-09-04T08:46:43.877Z,92.27
2018-09-04T08:47:48.203Z,85.35
2018-09-04T08:48:53.347Z,89.63
2018-09-04T08:49:57.737Z,97.90
2018-09-04T08:51:01.920Z,90.07
2018-09-04T08:52:06.222Z,93.65
2018-09-04T08:53:11.979Z,94.13
2018-09-04T08:54:16.258Z,93.73
2018-09-04T08:55:21.000Z,103.55
2018-09-04T08:56:25.143Z,87.80
2018-09-04T08:57:29.384Z,97.27
2018-09-04T08:58:34.618Z,92.92
2018-09-04T08:59:38.886Z,102.67
2018-09-04T09:00:43.192Z,91.70
2018-09-04T09:01:47.349Z,94.05
2018-09-04T09:02:51.526Z,95.87
2018-09-04T09:03:55.689Z,94.50
2018-09-04T09:05:00.090Z,103.43
2018-09-04T09:06:04.346Z,101.17
2018-09-04T09:07:08.615Z,95.17
2018-09-04T09:08:12.840Z,102.73
2018-09-04T09:09:17.079Z,90.20
2018-09-04T09:10:21.325Z,98.13
2018-09-04T09:11:25.536Z,103.80
2018-09-04T09:12:30.027Z,99.62
2018-09-04T09:13:34.240Z,105.43
2018-09-04T09:14:38.446Z,102.10
2018-09-04T09:15:42.680Z,91.15
2018-09-04T09:16:46.980Z,90.67
2018-09-04T09:17:51.177Z,92.50
2018-09-04T09:18:55.470Z,90.93
2018-09-04T09:19:59.636Z,91.87
2018-09-04T09:21:03.984Z,97.80
2018-09-04T09:22:08.205Z,90.47
2018-09-04T09:23:12.498Z,92.15
2018-09-04T09:24:16.704Z,90.90
2018-09-04T09:25:21.112Z,86.30
2018-09-04T09:26:25.361Z,84.03
2018-09-04T09:27:28.582Z,84.53
2018-09-04T09:28:32.562Z,89.00
2018-09-04T09:29:36.732Z,87.57
2018-09-04T09:30:40.880Z,89.97
2018-09-04T09:31:45.207Z,84.83
2018-09-04T09:32:49.422Z,94.10
2018-09-04T09:33:53.625Z,81.50
2018-09-04T09:34:57.847Z,85.40
2018-09-04T09:36:02.014Z,88.17
2018-09-04T09:37:06.274Z,85.95
2018-09-04T09:38:10.495Z,76.33
2018-09-04T09:39:14.688Z,97.45
2018-09-04T09:40:18.903Z,90.93
2018-09-04T09:41:23.100Z,78.53
2018-09-04T09:42:27.731Z,84.25
2018-09-04T09:43:31.973Z,78.37
2018-09-04T09:44:36.277Z,77.90
2018-09-04T09:45:40.474Z,82.43
2018-09-04T09:46:44.716Z,82.27
2018-09-04T09:47:50.045Z,83.10
2018-09-04T09:48:54.264Z,77.73
2018-09-04T09:49:58.455Z,81.80
2018-09-04T09:51:02.768Z,95.43
2018-09-04T09:52:07.009Z,83.00
2018-09-04T09:53:11.410Z,83.63
2018-09-04T09:54:15.441Z,87.57
2018-09-04T09:55:19.670Z,78.43
2018-09-04T09:56:23.921Z,83.20
2018-09-04T09:57:28.084Z,83.50
2018-09-04T09:58:32.343Z,87.60
2018-09-04T09:59:36.645Z,86.90
2018-09-04T10:00:46.071Z,74.97
2018-09-04T10:01:53.217Z,81.37
2018-09-04T10:03:02.672Z,77.70
2018-09-04T10:04:08.189Z,74.47
2018-09-04T10:05:12.222Z,76.45
2018-09-04T10:06:16.931Z,69.50
2018-09-04T10:07:21.111Z,81.70
2018-09-04T10:08:25.290Z,83.73
2018-09-04T10:09:29.599Z,76.33
2018-09-04T10:10:33.993Z,86.20
2018-09-04T10:11:38.214Z,79.10
2018-09-04T10:12:43.061Z,73.07
2018-09-04T10:13:47.966Z,82.83
2018-09-04T10:14:52.218Z,73.17
2018-09-04T10:15:56.490Z,87.53
2018-09-04T10:17:00.847Z,90.83
2018-09-04T10:18:05.290Z,79.90
2018-09-04T10:19:09.561Z,80.13
2018-09-04T10:20:13.843Z,82.53
2018-09-04T10:21:18.116Z,72.40
2018-09-04T10:22:22.380Z,71.63
2018-09-04T10:23:26.541Z,76.00
2018-09-04T10:24:30.772Z,78.10
2018-09-04T10:25:35.166Z,72.87
2018-09-04T10:26:39.426Z,74.10
2018-09-04T10:27:43.564Z,75.10
2018-09-04T10:28:47.827Z,71.53
2018-09-04T10:29:52.056Z,62.73
2018-09-04T10:30:56.263Z,66.87
2018-09-04T10:32:00.711Z,67.33
2018-09-04T10:33:04.950Z,66.20
2018-09-04T10:34:09.144Z,61.30
2018-09-04T10:35:14.136Z,67.10
2018-09-04T10:36:18.413Z,67.40
2018-09-04T10:37:22.536Z,61.10
2018-09-04T10:38:27.288Z,66.13
2018-09-04T10:39:36.865Z,65.30
2018-09-04T10:40:42.641Z,62.77
2018-09-04T10:41:46.833Z,67.13
2018-09-04T10:42:51.189Z,64.90
2018-09-04T10:43:57.151Z,63.83
2018-09-04T10:45:01.498Z,67.72
2018-09-04T10:46:07.277Z,68.73
2018-09-04T10:47:11.487Z,61.00
2018-09-04T10:48:19.817Z,62.77
2018-09-04T10:49:24.024Z,62.57
2018-09-04T10:50:29.019Z,70.17
2018-09-04T10:51:33.235Z,61.37
2018-09-04T10:52:37.450Z,65.33
2018-09-04T10:53:41.619Z,60.70
2018-09-04T10:54:45.977Z,67.93
2018-09-04T10:55:50.243Z,56.77
2018-09-04T10:56:54.429Z,62.90
2018-09-04T10:57:58.619Z,61.03
2018-09-04T10:59:02.852Z,61.67
2018-09-04T11:00:07.088Z,60.83
2018-09-04T11:01:11.554Z,56.30
2018-09-04T11:02:17.766Z,69.87
2018-09-04T11:03:22.100Z,67.10
2018-09-04T11:04:26.348Z,67.63
2018-09-04T11:05:30.542Z,69.40
2018-09-04T11:06:35.512Z,63.27
2018-09-04T11:07:39.706Z,69.80
2018-09-04T11:08:43.944Z,71.63
2018-09-04T11:09:48.295Z,65.40
2018-09-04T11:10:52.387Z,66.40
2018-09-04T11:11:56.682Z,69.33
2018-09-04T11:13:00.948Z,56.13
2018-09-04T11:14:05.116Z,61.87
2018-09-04T11:15:09.459Z,65.03
2018-09-04T11:16:13.733Z,58.70
2018-09-04T11:17:18.040Z,66.03
2018-09-04T11:18:22.247Z,60.47
2018-09-04T11:19:26.484Z,52.20
2018-09-04T11:20:30.786Z,61.30
2018-09-04T11:21:34.937Z,59.87
2018-09-04T11:22:39.185Z,60.43
2018-09-04T11:23:43.390Z,68.53
2018-09-04T11:24:47.718Z,59.00
2018-09-04T11:25:51.913Z,62.70
2018-09-04T11:26:56.228Z,59.33
2018-09-04T11:28:00.434Z,62.27
2018-09-04T11:29:07.039Z,57.50
2018-09-04T11:30:12.938Z,67.03
2018-09-04T11:31:17.122Z,64.20
2018-09-04T11:32:21.303Z,63.27
2018-09-04T11:33:25.494Z,65.57
2018-09-04T11:34:29.657Z,63.13
2018-09-04T11:35:34.007Z,54.83
2018-09-04T11:36:38.377Z,58.00
2018-09-04T11:37:42.522Z,60.10
2018-09-04T11:38:46.742Z,56.37
2018-09-04T11:39:51.073Z,63.00
2018-09-04T11:40:55.257Z,57.97
2018-09-04T11:41:59.608Z,57.87
2018-09-04T11:43:04.089Z,53.80
2018-09-04T11:44:08.564Z,57.67
2018-09-04T11:45:12.956Z,54.30
2018-09-04T11:46:17.203Z,52.83
2018-09-04T11:47:21.349Z,48.47
2018-09-04T11:48:25.760Z,51.27
2018-09-04T11:49:30.272Z,54.47
2018-09-04T11:50:34.462Z,50.10
2018-09-04T11:51:38.809Z,53.00
2018-09-04T11:52:42.990Z,53.40
2018-09-04T11:53:47.169Z,58.40
2018-09-04T11:54:51.358Z,52.80
2018-09-04T11:55:55.534Z,50.30
2018-09-04T11:56:59.904Z,55.73
2018-09-04T11:58:04.080Z,52.40
2018-09-04T11:59:08.282Z,53.77
2018-09-04T12:00:16.827Z,56.23
2018-09-04T12:01:23.896Z,53.60
2018-09-04T12:02:32.119Z,50.30
2018-09-04T12:03:36.366Z,54.43
2018-09-04T12:04:40.518Z,57.87
2018-09-04T12:05:44.983Z,50.87
2018-09-04T12:06:49.137Z,55.80
2018-09-04T12:07:53.322Z,55.90
2018-09-04T12:08:57.511Z,56.70
2018-09-04T12:10:01.729Z,57.23
2018-09-04T12:11:05.953Z,64.70
2018-09-04T12:12:14.515Z,59.43
2018-09-04T12:13:24.084Z,56.23
2018-09-04T12:14:33.673Z,60.03
2018-09-04T12:15:39.683Z,59.37
2018-09-04T12:16:43.891Z,63.50
2018-09-04T12:17:48.074Z,64.07
2018-09-04T12:18:52.446Z,54.37
2018-09-04T12:20:08.589Z,55.87
2018-09-04T12:21:12.903Z,51.90
2018-09-04T12:22:17.079Z,55.87
2018-09-04T12:23:21.422Z,50.53
2018-09-04T12:24:25.660Z,55.03
2018-09-04T12:25:29.901Z,54.93
2018-09-04T12:26:34.275Z,49.30
2018-09-04T12:27:38.698Z,49.50
2018-09-04T12:28:43.093Z,60.17
2018-09-04T12:29:47.334Z,63.13
2018-09-04T12:30:51.575Z,51.70
2018-09-04T12:31:55.761Z,61.00
2018-09-04T12:33:01.068Z,49.40
2018-09-04T12:34:05.399Z,56.13
2018-09-04T12:35:09.692Z,57.90
2018-09-04T12:36:13.909Z,55.60
2018-09-04T12:37:18.248Z,53.83
2018-09-04T12:38:30.535Z,58.60
2018-09-04T12:39:34.703Z,55.87
2018-09-04T12:40:38.909Z,63.37
2018-09-04T12:41:43.216Z,54.10
2018-09-04T12:42:47.407Z,51.10
2018-09-04T12:43:52.021Z,53.60
2018-09-04T12:44:58.374Z,57.13
2018-09-04T12:46:02.584Z,53.83
2018-09-04T12:47:06.965Z,56.13
2018-09-04T12:48:12.160Z,55.27
2018-09-04T12:49:16.338Z,51.80
2018-09-04T12:50:20.853Z,48.03
2018-09-04T12:51:25.081Z,55.17
2018-09-04T12:52:29.466Z,45.63
2018-09-04T12:53:34.443Z,54.40
2018-09-04T12:54:38.619Z,46.27
2018-09-04T12:55:42.833Z,49.23
2018-09-04T12:56:47.034Z,51.73
2018-09-04T12:57:51.221Z,49.33
2018-09-04T12:58:55.382Z,69.47
2018-09-04T12:59:59.585Z,57.63
2018-09-04T13:01:03.788Z,63.23
2018-09-04T13:02:08.030Z,59.57
2018-09-04T13:03:12.601Z,61.87
2018-09-04T13:04:16.799Z,56.23
2018-09-04T13:05:21.014Z,51.30
2018-09-04T13:06:25.264Z,51.60
2018-09-04T13:07:29.491Z,57.73
2018-09-04T13:08:34.319Z,52.90
2018-09-04T13:09:38.555Z,46.93
2018-09-04T13:10:43.013Z,56.47
2018-09-04T13:11:47.214Z,55.37
2018-09-04T13:12:51.473Z,56.23
2018-09-04T13:13:55.666Z,51.00
2018-09-04T13:14:59.930Z,48.80
2018-09-04T13:16:04.459Z,47.90
2018-09-04T13:17:08.633Z,56.47
2018-09-04T13:18:12.913Z,52.43
2018-09-04T13:19:17.113Z,51.03
2018-09-04T13:20:21.347Z,50.67
2018-09-04T13:21:25.528Z,49.50
2018-09-04T13:22:29.729Z,51.37
2018-09-04T13:23:35.349Z,57.17
2018-09-04T13:24:39.520Z,47.20
2018-09-04T13:25:43.944Z,51.63
2018-09-04T13:26:48.103Z,54.20
2018-09-04T13:27:52.309Z,46.67
2018-09-04T13:28:56.640Z,47.40
2018-09-04T13:30:00.785Z,47.30
2018-09-04T13:31:05.054Z,45.20
2018-09-04T13:32:09.444Z,51.23
2018-09-04T13:33:13.630Z,48.90
2018-09-04T13:34:17.825Z,49.37
2018-09-04T13:35:22.410Z,46.40
2018-09-04T13:36:26.774Z,49.83
2018-09-04T13:37:30.965Z,50.83
2018-09-04T13:38:35.206Z,46.87
2018-09-04T13:39:39.372Z,46.67
2018-09-04T13:40:43.546Z,49.80
2018-09-04T13:41:47.885Z,49.20
2018-09-04T13:42:52.116Z,49.77
2018-09-04T13:43:56.535Z,54.00
2018-09-04T13:45:00.741Z,54.27
2018-09-04T13:46:05.261Z,54.00
2018-09-04T13:47:09.458Z,52.30
2018-09-04T13:48:13.747Z,52.23
2018-09-04T13:49:17.985Z,52.30
2018-09-04T13:50:22.177Z,49.63
2018-09-04T13:51:26.421Z,53.93
2018-09-04T13:52:31.582Z,48.23
2018-09-04T13:53:35.766Z,53.33